Terminal Aerodrome Forecast
Issued by NWS Twin Cities, MN

Home | Current Version | Previous Version | Text Only | Print | Product List | Glossary On
Versions: 1 2 3 4 5 6 7 8 9 10 11 12 13 14 15 16
000
FTUS43 KMPX 201100 RRA
TAFEAU
TAF
KEAU 201139Z 2012/2112 25006KT P6SM SCT015
     FM201500 28010KT P6SM SCT035 SCT250
     FM201800 29010G16KT P6SM BKN045
     FM202200 28007KT 6SM -SHRA SCT040 BKN060
      TEMPO 2100/2104 2SM TSRA OVC030CB
     FM210600 30010KT 6SM -RA SCT030 BKN050=

USA.gov is the U.S. government's official web portal to all federal, state and local government web resources and services.